Time;durP1;ratioP1;P1;durP2;ratioP2;P2;SDS_P1;SDS_P2;PMS_P1;PMS_P2;Temp;Humidity;BMP_temperature;BMP_pressure;BME280_temperature;BME280_humidity;BME280_pressure;Samples;Min_cycle;Max_cycle;Signal;HPM_P1;HPM_P2
2023/06/08 00:01:09;;;;;;;11.10;9.10;;;;;;;16.62;66.73;100834.16;105931;1268;99298;-81
2023/06/08 00:03:55;;;;;;;10.40;9.20;;;;;;;16.58;66.98;100837.63;105558;1269;98000;-78
2023/06/08 00:06:41;;;;;;;10.30;8.80;;;;;;;16.50;67.01;100837.45;105388;1266;97973;-81
2023/06/08 00:09:30;;;;;;;11.80;8.80;;;;;;;16.40;67.10;100839.25;105534;1265;102442;-80
2023/06/08 00:12:16;;;;;;;10.20;8.20;;;;;;;16.32;67.46;100838.80;105394;1270;99139;-81
2023/06/08 00:15:04;;;;;;;10.60;8.30;;;;;;;16.24;67.41;100838.39;106106;1265;97895;-80
2023/06/08 00:17:50;;;;;;;15.70;9.40;;;;;;;16.17;67.43;100835.41;105234;1269;97978;-80
2023/06/08 00:20:39;;;;;;;11.40;9.10;;;;;;;16.12;67.82;100833.98;105275;1266;97880;-80
2023/06/08 00:23:24;;;;;;;13.30;8.30;;;;;;;16.10;67.85;100838.48;105249;1270;101405;-81
2023/06/08 00:26:10;;;;;;;10.80;8.20;;;;;;;16.07;67.98;100834.97;105380;1269;99105;-80
2023/06/08 00:28:55;;;;;;;9.60;8.50;;;;;;;16.02;68.32;100833.79;105259;1266;99445;-82
2023/06/08 00:31:41;;;;;;;12.40;9.10;;;;;;;15.99;68.64;100833.68;105299;1272;98823;-81
2023/06/08 00:34:27;;;;;;;12.20;9.20;;;;;;;15.98;68.78;100834.65;105227;1268;97997;-79
2023/06/08 00:37:13;;;;;;;10.40;9.30;;;;;;;15.94;68.63;100841.15;105191;1266;101318;-79
2023/06/08 00:39:59;;;;;;;17.80;10.80;;;;;;;15.88;69.05;100844.71;105158;1271;100403;-79
2023/06/08 00:42:45;;;;;;;14.80;11.20;;;;;;;15.82;69.11;100840.95;105599;1265;99218;-80
2023/06/08 00:45:31;;;;;;;13.10;11.20;;;;;;;15.81;69.25;100844.12;105189;1270;97946;-80
2023/06/08 00:48:17;;;;;;;14.80;11.40;;;;;;;15.77;69.34;100843.35;105119;1266;98569;-79
2023/06/08 00:51:03;;;;;;;12.30;9.70;;;;;;;15.72;69.35;100841.50;105149;1266;101373;-82
2023/06/08 00:53:49;;;;;;;12.20;10.20;;;;;;;15.67;69.53;100838.77;105601;1265;100103;-81
2023/06/08 00:56:38;;;;;;;12.00;9.70;;;;;;;15.63;69.89;100843.70;105111;1266;98462;-80
2023/06/08 00:59:24;;;;;;;12.40;10.30;;;;;;;15.58;69.98;100842.80;105961;1266;97980;-79
2023/06/08 01:02:10;;;;;;;18.90;10.00;;;;;;;15.53;70.36;100844.07;105782;1268;98414;-80
2023/06/08 01:04:57;;;;;;;13.40;11.40;;;;;;;15.49;70.62;100839.76;105574;1271;101353;-79
2023/06/08 01:08:00;;;;;;;16.30;11.80;;;;;;;15.44;71.06;100844.71;105561;1265;99600;-81
2023/06/08 01:11:17;;;;;;;13.40;11.60;;;;;;;15.41;71.07;100846.45;105873;1269;99278;-81
2023/06/08 01:14:12;;;;;;;12.10;10.90;;;;;;;15.36;71.44;100844.26;105725;1265;97973;-81
2023/06/08 01:17:02;;;;;;;14.40;10.50;;;;;;;15.33;71.51;100847.75;105904;1270;98503;-83
2023/06/08 01:20:29;;;;;;;14.60;11.20;;;;;;;15.31;71.59;100848.96;105755;1270;102559;-81
2023/06/08 01:23:20;;;;;;;11.90;10.80;;;;;;;15.25;71.65;100847.02;105819;1268;99235;-80
2023/06/08 01:26:10;;;;;;;14.90;11.40;;;;;;;15.21;71.57;100844.75;105074;1271;97974;-81
2023/06/08 01:28:56;;;;;;;14.80;11.50;;;;;;;15.15;71.59;100843.88;105702;1265;98136;-81
2023/06/08 01:31:42;;;;;;;13.60;10.80;;;;;;;15.11;71.68;100847.17;105514;1265;98954;-81
2023/06/08 01:34:28;;;;;;;13.00;11.60;;;;;;;15.09;71.83;100847.51;105492;1266;102142;-79
2023/06/08 01:37:16;;;;;;;12.70;11.30;;;;;;;15.06;72.16;100849.63;104958;1270;99712;-81
2023/06/08 01:40:12;;;;;;;14.50;12.30;;;;;;;15.07;72.24;100849.46;105535;1268;106360;-80
2023/06/08 01:43:00;;;;;;;13.70;11.20;;;;;;;15.04;72.64;100851.88;105010;1266;98086;-79
2023/06/08 01:45:51;;;;;;;13.10;11.70;;;;;;;15.03;71.88;100853.42;105637;1266;98483;-79
2023/06/08 01:48:40;;;;;;;13.60;11.30;;;;;;;14.99;72.10;100857.11;105142;1271;103009;-80
2023/06/08 01:51:26;;;;;;;14.20;11.70;;;;;;;14.96;72.09;100854.67;105299;1268;99096;-80
2023/06/08 01:54:12;;;;;;;12.40;11.10;;;;;;;14.95;71.98;100856.48;105163;1265;97920;-78
2023/06/08 01:56:57;;;;;;;15.00;11.70;;;;;;;14.94;71.72;100855.45;105252;1268;97992;-80
2023/06/08 01:59:43;;;;;;;15.10;12.00;;;;;;;14.94;71.92;100853.38;105046;1266;98102;-79
2023/06/08 02:02:29;;;;;;;16.20;12.00;;;;;;;14.92;71.74;100855.95;105106;1265;101373;-81
2023/06/08 02:05:16;;;;;;;11.50;10.30;;;;;;;14.89;71.75;100853.52;105133;1271;99153;-79
2023/06/08 02:08:02;;;;;;;13.60;10.80;;;;;;;14.85;71.81;100852.55;105186;1266;98700;-79
2023/06/08 02:10:47;;;;;;;11.00;9.90;;;;;;;14.82;71.89;100850.20;105185;1269;98082;-78
2023/06/08 02:13:34;;;;;;;16.90;11.40;;;;;;;14.78;71.87;100854.50;104698;1265;98601;-79
2023/06/08 02:16:20;;;;;;;12.60;11.00;;;;;;;14.75;72.03;100854.75;105006;1265;101908;-79
2023/06/08 02:19:06;;;;;;;13.50;10.60;;;;;;;14.71;71.98;100856.29;105131;1265;100010;-79
2023/06/08 02:21:52;;;;;;;13.60;10.70;;;;;;;14.67;71.97;100856.45;105249;1266;99134;-80
2023/06/08 02:24:38;;;;;;;21.20;13.00;;;;;;;14.62;71.96;100855.33;105562;1268;99172;-78
2023/06/08 02:27:23;;;;;;;17.90;12.30;;;;;;;14.59;72.31;100854.88;105191;1265;97978;-80
2023/06/08 02:30:12;;;;;;;17.70;12.80;;;;;;;14.56;72.37;100856.45;105253;1271;101359;-80
2023/06/08 02:32:57;;;;;;;18.60;13.30;;;;;;;14.51;72.66;100855.23;105210;1269;99067;-81
2023/06/08 02:35:43;;;;;;;19.50;13.60;;;;;;;14.47;72.88;100853.15;105619;1266;106841;-81
2023/06/08 02:38:30;;;;;;;25.70;13.90;;;;;;;14.44;73.08;100856.31;105670;1266;97967;-78
2023/06/08 02:41:16;;;;;;;20.60;14.50;;;;;;;14.38;73.30;100859.16;105616;1269;98714;-79
2023/06/08 02:44:02;;;;;;;15.80;13.20;;;;;;;14.35;73.41;100856.09;105207;1269;102697;-80
2023/06/08 02:46:47;;;;;;;16.70;13.00;;;;;;;14.33;73.75;100858.86;105809;1269;100393;-80
2023/06/08 02:49:33;;;;;;;16.20;11.90;;;;;;;14.31;73.50;100858.78;105513;1265;98709;-81
2023/06/08 02:52:18;;;;;;;17.90;13.20;;;;;;;14.31;73.67;100861.56;105585;1274;97951;-79
2023/06/08 02:55:05;;;;;;;19.70;13.50;;;;;;;14.32;73.65;100863.38;105514;1271;99288;-82
2023/06/08 02:57:51;;;;;;;16.50;13.50;;;;;;;14.31;73.81;100863.38;105666;1265;101386;-81
2023/06/08 03:00:38;;;;;;;20.80;14.30;;;;;;;14.28;73.97;100864.73;105018;1265;99089;-80
2023/06/08 03:03:44;;;;;;;16.60;14.10;;;;;;;14.23;73.98;100866.48;105170;1271;99125;-80
2023/06/08 03:06:36;;;;;;;15.80;14.10;;;;;;;14.19;74.02;100869.09;105031;1274;97945;-79
2023/06/08 03:09:24;;;;;;;16.60;13.90;;;;;;;14.17;74.45;100867.59;105171;1268;98386;-80
2023/06/08 03:12:12;;;;;;;15.40;13.80;;;;;;;14.16;74.61;100866.29;105202;1265;101341;-81
2023/06/08 03:14:59;;;;;;;16.70;13.50;;;;;;;14.15;74.95;100868.78;105138;1265;99085;-80
2023/06/08 03:17:45;;;;;;;16.20;14.30;;;;;;;14.15;75.01;100866.45;105557;1271;98729;-81
2023/06/08 03:20:31;;;;;;;16.80;13.90;;;;;;;14.16;75.10;100863.48;105095;1271;98079;-81
2023/06/08 03:23:29;;;;;;;15.20;13.10;;;;;;;14.18;74.87;100864.73;105267;1268;99098;-80
2023/06/08 03:26:15;;;;;;;16.60;13.20;;;;;;;14.25;75.30;100865.28;105207;1266;101392;-81
2023/06/08 03:29:02;;;;;;;15.00;12.30;;;;;;;14.33;75.67;100871.73;105609;1265;99190;-78
2023/06/08 03:31:48;;;;;;;14.70;12.70;;;;;;;14.40;75.64;100875.84;105095;1266;98657;-79
2023/06/08 03:34:37;;;;;;;16.90;12.60;;;;;;;14.47;75.57;100877.96;105681;1271;97884;-81
2023/06/08 03:37:24;;;;;;;14.60;12.30;;;;;;;14.55;75.97;100881.86;105613;1271;97866;-80
2023/06/08 03:40:10;;;;;;;14.10;12.20;;;;;;;14.65;76.58;100877.61;105640;1271;102064;-79
2023/06/08 03:42:57;;;;;;;15.10;12.40;;;;;;;14.76;76.88;100877.41;105494;1269;99224;-80
2023/06/08 03:45:44;;;;;;;16.10;13.30;;;;;;;14.87;77.05;100878.27;105585;1266;98229;-81
2023/06/08 03:48:30;;;;;;;14.80;12.70;;;;;;;14.98;77.32;100876.95;105757;1266;97985;-79
2023/06/08 03:51:20;;;;;;;16.30;13.20;;;;;;;15.07;77.54;100876.31;105614;1265;98022;-79
2023/06/08 03:54:06;;;;;;;18.50;13.80;;;;;;;15.17;77.81;100878.42;105195;1270;102637;-79
2023/06/08 03:56:51;;;;;;;15.30;12.80;;;;;;;15.24;77.97;100878.50;105253;1271;100357;-79
2023/06/08 03:59:38;;;;;;;19.10;13.40;;;;;;;15.28;77.82;100877.75;105260;1265;98665;-80
2023/06/08 04:02:24;;;;;;;21.00;14.10;;;;;;;15.33;78.14;100876.36;105106;1271;97973;-80
2023/06/08 04:05:10;;;;;;;16.70;14.20;;;;;;;15.42;78.58;100878.02;105193;1265;98535;-81
2023/06/08 04:08:01;;;;;;;18.40;15.00;;;;;;;15.51;78.91;100876.72;105358;1269;101549;-81
2023/06/08 04:10:48;;;;;;;16.90;14.70;;;;;;;15.59;79.29;100880.64;105174;1270;100355;-81
2023/06/08 04:13:38;;;;;;;17.30;14.90;;;;;;;15.65;79.27;100874.81;105703;1269;98722;-81
2023/06/08 04:16:25;;;;;;;18.20;15.10;;;;;;;15.73;79.42;100878.56;105587;1271;98093;-80
2023/06/08 04:19:11;;;;;;;19.10;15.20;;;;;;;15.82;79.67;100877.83;105679;1266;97993;-81
2023/06/08 04:21:59;;;;;;;16.40;14.00;;;;;;;15.90;79.83;100876.95;105680;1265;102643;-79
2023/06/08 04:24:46;;;;;;;16.00;14.00;;;;;;;16.00;79.78;100875.63;105651;1270;99220;-80
2023/06/08 04:27:34;;;;;;;16.50;14.00;;;;;;;16.10;79.50;100875.95;105688;1273;98051;-80
2023/06/08 04:30:21;;;;;;;19.30;14.30;;;;;;;16.21;79.36;100874.92;105611;1265;99254;-81
2023/06/08 04:33:07;;;;;;;17.70;14.00;;;;;;;16.31;79.72;100872.95;105545;1266;97968;-80
2023/06/08 04:35:53;;;;;;;16.80;13.80;;;;;;;16.37;79.49;100874.53;105313;1266;102624;-80
2023/06/08 04:38:41;;;;;;;18.20;13.70;;;;;;;16.44;79.41;100876.08;105355;1266;100060;-81
2023/06/08 04:41:29;;;;;;;17.00;13.10;;;;;;;16.52;79.39;100878.09;105375;1271;98276;-82
2023/06/08 04:44:20;;;;;;;15.70;12.70;;;;;;;16.60;79.26;100876.83;105302;1271;98082;-80
2023/06/08 04:47:07;;;;;;;12.90;11.40;;;;;;;16.68;78.89;100873.61;105315;1271;98039;-82
2023/06/08 04:49:58;;;;;;;13.30;11.00;;;;;;;16.75;78.82;100874.76;105359;1271;101365;-80
2023/06/08 04:52:45;;;;;;;16.30;10.50;;;;;;;16.83;78.92;100878.02;105519;1265;99302;-81
2023/06/08 04:55:31;;;;;;;14.50;10.80;;;;;;;16.91;78.79;100872.88;105466;1270;97965;-81
2023/06/08 04:58:16;;;;;;;14.30;9.40;;;;;;;17.00;78.64;100880.63;105650;1269;98889;-82
2023/06/08 05:01:02;;;;;;;10.60;9.60;;;;;;;17.07;78.26;100883.89;105541;1268;97824;-82
2023/06/08 05:03:48;;;;;;;18.60;11.40;;;;;;;17.14;78.31;100880.33;105498;1277;102673;-82
2023/06/08 05:06:35;;;;;;;13.00;9.30;;;;;;;17.25;78.42;100884.35;105742;1269;100854;-81
2023/06/08 05:09:20;;;;;;;14.10;10.10;;;;;;;17.36;77.92;100890.23;105539;1270;99040;-82
2023/06/08 05:12:07;;;;;;;10.90;9.70;;;;;;;17.42;77.72;100889.67;105813;1270;98019;-81
2023/06/08 05:14:53;;;;;;;12.90;9.90;;;;;;;17.49;77.77;100889.91;105672;1266;98599;-81
2023/06/08 05:17:39;;;;;;;11.60;9.30;;;;;;;17.59;77.50;100889.77;105546;1268;101491;-82
2023/06/08 05:20:26;;;;;;;12.70;9.00;;;;;;;17.68;77.23;100890.43;105884;1265;99258;-81
2023/06/08 05:23:11;;;;;;;11.80;9.20;;;;;;;17.75;76.82;100887.39;105864;1266;99000;-82
2023/06/08 05:25:56;;;;;;;13.00;8.40;;;;;;;17.83;77.13;100889.95;105861;1267;98002;-82
2023/06/08 05:28:42;;;;;;;10.40;8.10;;;;;;;17.92;77.23;100887.33;105801;1265;97901;-82
2023/06/08 05:31:28;;;;;;;13.40;9.70;;;;;;;18.02;77.24;100889.30;105796;1266;101346;-83
2023/06/08 05:34:13;;;;;;;10.90;9.00;;;;;;;18.11;76.64;100889.97;106010;1267;99130;-81
2023/06/08 05:36:59;;;;;;;12.60;9.70;;;;;;;18.19;76.48;100890.07;105909;1270;97947;-81
2023/06/08 05:39:44;;;;;;;11.90;9.90;;;;;;;18.28;75.81;100888.35;105824;1265;97927;-80
2023/06/08 05:42:30;;;;;;;11.50;8.70;;;;;;;18.36;76.03;100886.61;105890;1271;98383;-82
2023/06/08 05:45:16;;;;;;;11.50;8.60;;;;;;;18.49;76.25;100889.92;105829;1269;102593;-82
2023/06/08 05:48:02;;;;;;;9.30;8.10;;;;;;;18.61;76.10;100893.39;105758;1265;99224;-81
2023/06/08 05:50:48;;;;;;;12.40;8.40;;;;;;;18.71;75.04;100893.21;105793;1271;97976;-81
2023/06/08 05:53:33;;;;;;;10.70;7.60;;;;;;;18.80;74.61;100887.52;105867;1267;97990;-81
2023/06/08 05:56:18;;;;;;;10.40;7.80;;;;;;;18.90;74.30;100888.45;105802;1270;98374;-81
2023/06/08 05:59:04;;;;;;;11.70;8.00;;;;;;;18.96;73.81;100887.71;105827;1269;101360;-82
2023/06/08 06:01:50;;;;;;;8.90;7.70;;;;;;;19.03;73.75;100887.92;105901;1271;99275;-80
2023/06/08 06:04:36;;;;;;;8.30;7.40;;;;;;;19.10;73.42;100885.56;105823;1271;97969;-81
2023/06/08 06:07:22;;;;;;;13.30;7.70;;;;;;;19.16;73.32;100885.86;106084;1266;98067;-81
2023/06/08 06:10:08;;;;;;;13.90;6.20;;;;;;;19.26;72.77;100885.61;105907;1267;98078;-82
2023/06/08 06:12:54;;;;;;;10.20;6.60;;;;;;;19.40;72.68;100882.70;106062;1267;101353;-81
2023/06/08 06:15:39;;;;;;;9.40;6.50;;;;;;;19.56;72.72;100883.31;106147;1269;99133;-82
2023/06/08 06:18:25;;;;;;;9.10;7.30;;;;;;;19.68;72.12;100884.18;106201;1266;98977;-81
2023/06/08 06:21:10;;;;;;;11.60;6.70;;;;;;;19.74;71.84;100883.92;106040;1266;97900;-83
2023/06/08 06:23:56;;;;;;;8.90;6.90;;;;;;;19.81;71.69;100879.89;106099;1266;98432;-82
2023/06/08 06:26:41;;;;;;;7.50;6.60;;;;;;;19.90;71.30;100881.71;106011;1266;101289;-82
2023/06/08 06:29:27;;;;;;;11.30;6.40;;;;;;;20.01;71.02;100880.14;106159;1269;100440;-82
2023/06/08 06:32:13;;;;;;;8.00;5.80;;;;;;;20.14;71.06;100878.27;106143;1270;97971;-82
2023/06/08 06:34:58;;;;;;;10.70;6.40;;;;;;;20.27;70.76;100878.39;106019;1266;97942;-83
2023/06/08 06:37:43;;;;;;;7.80;5.80;;;;;;;20.39;70.63;100877.31;106008;1269;97962;-81
2023/06/08 06:40:29;;;;;;;12.00;6.00;;;;;;;20.52;69.76;100874.14;105985;1268;101425;-80
2023/06/08 06:43:16;;;;;;;7.20;5.50;;;;;;;20.65;69.42;100873.65;106389;1269;99145;-82
2023/06/08 06:46:10;;;;;;;10.60;6.50;;;;;;;20.72;68.96;100874.20;106184;1271;97983;-83
2023/06/08 06:48:55;;;;;;;6.70;5.90;;;;;;;20.79;68.53;100873.40;106113;1266;98014;-82
2023/06/08 06:51:41;;;;;;;8.20;6.00;;;;;;;20.86;67.78;100873.73;105998;1271;98036;-82
2023/06/08 06:54:26;;;;;;;7.90;6.20;;;;;;;20.92;67.88;100874.48;106039;1271;102650;-81
2023/06/08 06:57:12;;;;;;;7.60;5.30;;;;;;;21.02;67.43;100873.40;106217;1265;99054;-82
2023/06/08 06:59:59;;;;;;;7.60;6.00;;;;;;;21.08;67.09;100872.55;106239;1271;98941;-81
2023/06/08 07:02:45;;;;;;;5.60;5.10;;;;;;;21.15;66.48;100875.92;106121;1269;98530;-83
2023/06/08 07:05:31;;;;;;;6.70;6.00;;;;;;;21.22;65.89;100874.57;105975;1271;98642;-83
2023/06/08 07:08:17;;;;;;;7.70;5.30;;;;;;;21.31;65.82;100875.19;106135;1271;101355;-82
2023/06/08 07:11:03;;;;;;;7.90;5.20;;;;;;;21.39;66.09;100876.83;106099;1269;99200;-83
2023/06/08 07:13:50;;;;;;;11.20;6.50;;;;;;;21.51;66.17;100872.75;106128;1271;98555;-82
2023/06/08 07:16:36;;;;;;;6.50;5.00;;;;;;;21.62;65.03;100875.89;106072;1271;97913;-82
2023/06/08 07:19:21;;;;;;;6.60;4.90;;;;;;;21.70;64.40;100874.52;106096;1267;98510;-83
2023/06/08 07:22:06;;;;;;;9.30;5.40;;;;;;;21.77;64.27;100871.88;106040;1269;102620;-82
2023/06/08 07:24:52;;;;;;;6.60;4.60;;;;;;;21.87;63.59;100865.49;105961;1269;99088;-82
2023/06/08 07:27:38;;;;;;;7.20;4.30;;;;;;;21.95;63.02;100865.65;105872;1271;97961;-82
2023/06/08 07:30:24;;;;;;;5.80;4.30;;;;;;;22.01;62.56;100864.42;106082;1269;95901;-83
2023/06/08 07:33:10;;;;;;;6.20;4.70;;;;;;;22.06;62.57;100860.16;105876;1270;97861;-82
2023/06/08 07:35:55;;;;;;;6.10;4.60;;;;;;;22.11;62.51;100856.50;105735;1268;102091;-84
2023/06/08 07:38:41;;;;;;;5.20;4.50;;;;;;;22.18;62.32;100857.45;105944;1270;99896;-83
2023/06/08 07:41:27;;;;;;;8.30;5.00;;;;;;;22.24;61.97;100859.10;105732;1274;98971;-82
2023/06/08 07:44:13;;;;;;;5.50;4.90;;;;;;;22.27;61.89;100859.40;105872;1269;97968;-82
2023/06/08 07:47:00;;;;;;;4.90;4.40;;;;;;;22.34;62.09;100859.63;105952;1271;98462;-82
2023/06/08 07:49:46;;;;;;;7.30;5.00;;;;;;;22.41;62.15;100856.77;105825;1269;101322;-82
2023/06/08 07:52:32;;;;;;;9.30;5.30;;;;;;;22.49;62.15;100854.28;105990;1271;99157;-82
2023/06/08 07:55:17;;;;;;;8.40;4.90;;;;;;;22.56;60.87;100851.12;106036;1267;97957;-83
2023/06/08 07:58:03;;;;;;;6.90;5.20;;;;;;;22.58;60.44;100851.77;105908;1268;97897;-83
2023/06/08 08:00:48;;;;;;;7.60;4.80;;;;;;;22.63;60.46;100850.13;106007;1271;98582;-80
2023/06/08 08:03:40;;;;;;;6.90;5.00;;;;;;;22.67;60.85;100851.32;106459;1267;101530;-85
2023/06/08 08:06:26;;;;;;;5.70;4.60;;;;;;;22.77;61.82;100850.35;105610;1267;100580;-83
2023/06/08 08:09:11;;;;;;;5.90;4.40;;;;;;;22.87;60.40;100852.84;105512;1273;98997;-82
2023/06/08 08:11:57;;;;;;;9.00;4.90;;;;;;;22.91;59.95;100853.91;105231;1271;99151;-85
2023/06/08 08:14:42;;;;;;;5.70;4.90;;;;;;;22.92;59.03;100853.75;105561;1269;98432;-83
2023/06/08 08:17:28;;;;;;;7.00;5.30;;;;;;;22.95;59.33;100856.40;105441;1267;101360;-82
2023/06/08 08:20:13;;;;;;;6.70;4.90;;;;;;;23.02;59.10;100857.01;105280;1271;99079;-84
2023/06/08 08:22:59;;;;;;;10.10;5.10;;;;;;;23.11;58.74;100860.13;105475;1272;99005;-85
2023/06/08 08:25:45;;;;;;;6.30;5.00;;;;;;;23.18;58.17;100856.39;105379;1270;97868;-86
2023/06/08 08:28:30;;;;;;;8.50;5.80;;;;;;;23.22;58.59;100855.71;105365;1267;97983;-83
2023/06/08 08:31:15;;;;;;;6.80;5.50;;;;;;;23.27;58.29;100850.99;105925;1265;103445;-81
2023/06/08 08:34:02;;;;;;;7.10;4.80;;;;;;;23.31;58.17;100848.13;106086;1267;99230;-82
2023/06/08 08:36:48;;;;;;;7.40;5.10;;;;;;;23.35;57.34;100847.62;105449;1272;99578;-84
2023/06/08 08:39:33;;;;;;;8.20;4.60;;;;;;;23.39;57.08;100846.00;105776;1267;97899;-81
2023/06/08 08:42:24;;;;;;;9.00;5.00;;;;;;;23.46;56.85;100845.56;105591;1267;99237;-85
2023/06/08 08:45:13;;;;;;;6.30;4.90;;;;;;;23.56;56.82;100845.89;105564;1267;101354;-85
2023/06/08 08:48:01;;;;;;;5.50;4.50;;;;;;;23.67;56.40;100845.98;105509;1265;99654;-81
2023/06/08 08:50:57;;;;;;;5.90;4.50;;;;;;;23.77;56.16;100849.03;105486;1266;97890;-81
2023/06/08 08:53:45;;;;;;;8.30;4.20;;;;;;;23.83;55.80;100846.81;105605;1269;97914;-81
2023/06/08 08:56:36;;;;;;;5.10;4.10;;;;;;;23.87;54.78;100838.51;105789;1270;100229;-80
2023/06/08 08:59:23;;;;;;;8.40;5.00;;;;;;;23.90;55.41;100838.96;104910;1268;101433;-79
2023/06/08 09:02:09;;;;;;;5.90;4.40;;;;;;;23.96;55.45;100833.19;104972;1267;99300;-80
2023/06/08 09:04:54;;;;;;;5.70;4.40;;;;;;;24.03;54.57;100828.63;104871;1267;97977;-79
2023/06/08 09:07:40;;;;;;;6.80;5.00;;;;;;;24.10;54.45;100829.38;104839;1274;98016;-80
2023/06/08 09:10:27;;;;;;;5.70;4.40;;;;;;;24.19;54.38;100826.98;105086;1270;97916;-81
2023/06/08 09:13:20;;;;;;;4.50;4.10;;;;;;;24.24;53.64;100820.98;105035;1267;101353;-79
2023/06/08 09:16:27;;;;;;;4.90;4.10;;;;;;;24.26;53.40;100820.65;105060;1269;99092;-78
2023/06/08 09:19:13;;;;;;;5.10;3.90;;;;;;;24.30;53.21;100821.92;105079;1269;99934;-80
2023/06/08 09:21:58;;;;;;;7.40;4.10;;;;;;;24.33;52.55;100815.40;104948;1267;98839;-79
2023/06/08 09:24:49;;;;;;;4.70;3.90;;;;;;;24.35;52.36;100815.01;104905;1266;97965;-79
2023/06/08 09:27:37;;;;;;;6.30;4.50;;;;;;;24.40;52.30;100812.13;106368;1262;101415;-79
2023/06/08 09:30:23;;;;;;;3.80;3.40;;;;;;;24.44;52.18;100811.41;104714;1265;99814;-79
2023/06/08 09:33:25;;;;;;;5.10;3.10;;;;;;;24.46;51.13;100813.01;105942;1261;98997;31
2023/06/08 09:36:15;;;;;;;4.50;3.50;;;;;;;24.48;50.43;100808.29;104756;1268;98042;-78
2023/06/08 09:39:03;;;;;;;5.60;3.70;;;;;;;24.56;50.83;100807.74;104830;1271;98070;-79
2023/06/08 09:41:56;;;;;;;4.50;3.00;;;;;;;24.66;50.66;100806.81;104780;1270;111237;-78
2023/06/08 09:44:41;;;;;;;5.90;3.60;;;;;;;24.73;50.01;100804.86;104784;1270;100374;-79
2023/06/08 09:47:27;;;;;;;7.50;3.10;;;;;;;24.82;49.83;100804.80;104745;1271;98010;-79
2023/06/08 09:50:13;;;;;;;3.90;2.80;;;;;;;24.90;49.59;100803.39;104970;1273;98007;-79
2023/06/08 09:53:00;;;;;;;5.70;3.50;;;;;;;24.91;48.54;100795.54;105266;1271;98493;-81
2023/06/08 09:55:46;;;;;;;4.30;3.20;;;;;;;24.92;49.61;100789.90;105017;1270;102927;-79
2023/06/08 09:58:35;;;;;;;3.00;2.80;;;;;;;25.03;50.25;100795.41;105086;1271;99180;-78
2023/06/08 10:01:27;;;;;;;3.80;3.30;;;;;;;25.12;49.62;100792.60;104869;1270;98863;-79
2023/06/08 10:04:22;;;;;;;6.10;3.00;;;;;;;25.15;49.09;100793.02;105085;1271;98080;-79
2023/06/08 10:07:19;;;;;;;6.80;3.40;;;;;;;25.20;48.96;100791.30;104862;1271;98331;-80
2023/06/08 10:10:20;;;;;;;4.90;3.50;;;;;;;25.32;48.76;100783.77;105626;1272;101342;-80
2023/06/08 10:13:05;;;;;;;6.60;3.50;;;;;;;25.44;48.35;100789.89;105724;1269;100439;-79
2023/06/08 10:15:52;;;;;;;3.40;3.00;;;;;;;25.42;47.80;100787.64;105033;1271;98963;-79
2023/06/08 10:18:38;;;;;;;4.00;3.20;;;;;;;25.38;47.39;100785.23;105213;1271;97991;-79
2023/06/08 10:21:26;;;;;;;5.10;3.00;;;;;;;25.37;47.69;100783.30;105331;1268;98535;-79
2023/06/08 10:24:12;;;;;;;3.80;3.00;;;;;;;25.38;47.41;100776.83;105411;1267;102025;-78
2023/06/08 10:27:33;;;;;;;4.20;3.30;;;;;;;25.39;47.81;100773.65;104837;1268;99131;-79
2023/06/08 10:30:27;;;;;;;5.20;3.20;;;;;;;25.44;47.59;100774.59;105030;1270;98054;-78
2023/06/08 10:33:21;;;;;;;6.00;3.20;;;;;;;25.50;47.79;100770.58;104461;1270;98103;-79
2023/06/08 10:36:39;;;;;;;11.60;3.50;;;;;;;25.54;47.44;100766.64;105614;1260;97964;31
2023/06/08 10:39:26;;;;;;;4.80;3.20;;;;;;;25.63;47.97;100769.67;104458;1268;102459;-78
2023/06/08 10:42:18;;;;;;;4.50;3.50;;;;;;;25.77;47.17;100770.98;104566;1268;99803;-79
2023/06/08 10:45:06;;;;;;;7.50;3.20;;;;;;;25.84;45.80;100766.65;104480;1273;99288;-78
2023/06/08 10:48:01;;;;;;;6.60;3.60;;;;;;;25.89;46.18;100759.00;104456;1277;97975;-78
2023/06/08 10:50:49;;;;;;;4.90;3.10;;;;;;;25.96;46.79;100754.77;104460;1268;98529;-78
2023/06/08 10:53:59;;;;;;;6.00;2.90;;;;;;;26.09;46.42;100753.11;104432;1273;102745;-78
2023/06/08 10:56:47;;;;;;;5.60;2.90;;;;;;;26.15;46.08;100751.83;104720;1272;99107;-78
2023/06/08 10:59:36;;;;;;;5.70;3.00;;;;;;;26.23;45.80;100750.50;104768;1268;98986;-80
2023/06/08 11:02:22;;;;;;;4.00;3.40;;;;;;;26.32;45.85;100750.54;104629;1268;98022;-79
2023/06/08 11:05:09;;;;;;;7.90;3.40;;;;;;;26.39;45.64;100750.83;104687;1268;98433;-78
2023/06/08 11:07:56;;;;;;;4.60;3.90;;;;;;;26.36;44.89;100746.39;104684;1269;102542;-80
2023/06/08 11:10:42;;;;;;;4.60;3.30;;;;;;;26.35;44.70;100745.36;104667;1273;101346;-79
2023/06/08 11:13:30;;;;;;;4.80;3.90;;;;;;;26.40;45.11;100745.86;104855;1271;99472;-79
2023/06/08 11:16:20;;;;;;;6.00;3.20;;;;;;;26.42;44.40;100745.52;104955;1272;98029;-79
2023/06/08 11:19:09;;;;;;;4.20;3.30;;;;;;;26.43;44.39;100739.41;104884;1268;98512;-79
2023/06/08 11:21:54;;;;;;;3.40;3.10;;;;;;;26.49;44.30;100736.95;104865;1271;103839;-79
2023/06/08 11:24:43;;;;;;;3.90;3.20;;;;;;;26.55;43.91;100731.23;104811;1268;100063;-79
2023/06/08 11:27:28;;;;;;;4.00;3.30;;;;;;;26.61;43.94;100738.03;104611;1273;98431;-79
2023/06/08 11:30:18;;;;;;;4.80;3.00;;;;;;;26.64;43.76;100733.77;104622;1272;106196;-79
2023/06/08 11:33:05;;;;;;;5.70;3.10;;;;;;;26.66;43.76;100729.31;104820;1268;97995;-79
2023/06/08 11:35:51;;;;;;;5.20;2.70;;;;;;;26.61;43.31;100726.48;104732;1268;101353;-78
2023/06/08 11:38:39;;;;;;;5.10;3.60;;;;;;;26.65;43.26;100720.52;104817;1268;99111;-79
2023/06/08 11:41:26;;;;;;;6.10;2.80;;;;;;;26.74;43.49;100720.79;104706;1269;97980;-79
2023/06/08 11:44:15;;;;;;;4.10;3.10;;;;;;;26.79;42.80;100716.34;104610;1268;98092;-78
2023/06/08 11:47:01;;;;;;;8.20;3.60;;;;;;;26.82;42.51;100714.39;104693;1268;97900;-78
2023/06/08 11:49:59;;;;;;;3.50;3.10;;;;;;;26.88;42.61;100713.11;104740;1271;101345;-79
2023/06/08 11:52:46;;;;;;;4.50;3.20;;;;;;;26.95;42.51;100710.89;104792;1268;100337;-79
2023/06/08 11:55:31;;;;;;;6.00;3.60;;;;;;;26.97;42.06;100707.35;104643;1268;108030;-79
2023/06/08 11:58:23;;;;;;;5.50;2.90;;;;;;;26.89;42.46;100707.82;104831;1271;98513;-78
2023/06/08 12:01:11;;;;;;;5.30;2.80;;;;;;;26.75;41.87;100711.48;104677;1274;98032;-78
2023/06/08 12:03:56;;;;;;;3.40;2.90;;;;;;;26.62;41.48;100709.94;104774;1271;102629;-79
2023/06/08 12:06:42;;;;;;;6.80;3.40;;;;;;;26.57;41.28;100703.14;104675;1271;100149;-78
2023/06/08 12:09:27;;;;;;;5.50;2.90;;;;;;;26.62;41.27;100700.83;104714;1271;97990;-78
2023/06/08 12:12:13;;;;;;;6.10;3.30;;;;;;;26.65;41.27;100701.89;104701;1268;98028;-79
2023/06/08 12:14:58;;;;;;;5.80;3.10;;;;;;;26.57;40.57;100701.38;104973;1271;98583;-80
2023/06/08 12:17:46;;;;;;;5.40;3.50;;;;;;;26.54;40.94;100695.08;105048;1267;101572;-80
2023/06/08 12:20:35;;;;;;;4.90;2.80;;;;;;;26.61;40.32;100690.89;105096;1267;100381;-80
2023/06/08 12:23:20;;;;;;;3.50;2.80;;;;;;;26.73;40.65;100686.16;105002;1268;98493;-79
2023/06/08 12:26:06;;;;;;;6.30;2.90;;;;;;;26.87;41.06;100683.64;104911;1271;98838;-80
2023/06/08 12:28:53;;;;;;;3.50;2.90;;;;;;;26.99;40.53;100681.98;105013;1268;98066;-80
2023/06/08 12:31:39;;;;;;;4.80;3.10;;;;;;;27.03;40.80;100677.96;104882;1274;101328;-80
2023/06/08 12:34:25;;;;;;;5.80;3.10;;;;;;;27.07;40.00;100676.16;104938;1268;99098;-80
2023/06/08 12:37:11;;;;;;;5.60;3.10;;;;;;;27.04;39.26;100676.90;104991;1272;98482;-79
2023/06/08 12:39:57;;;;;;;4.30;2.90;;;;;;;26.98;40.03;100672.03;105086;1268;97777;-80
2023/06/08 12:42:46;;;;;;;4.30;3.50;;;;;;;26.96;40.10;100673.10;105014;1272;99279;-80